Latest Coastal Weather Observations for Cape Willoughby

IDS60701

Issued at 9:51 am CST Wednesday 23 August 2017 (issued every 10 minutes, with the page automatically refreshed every 10 minutes)

About coastal observations | Map of coastal stations | Coastal observations for SA | Marine services | Other Formats
Station Details ID: 022803 Name: CAPE WILLOUGHBY Lat: -35.84 Lon: 138.13 Height: 55.0 m
Data from the previous 72 hours. | See also: Recent months at Cape Willoughby
Date/Time
CST
Temp
°C
Wind Pressure Rain since
9am
mm
Weather Cloud Vis
km
Sea
Height
m
Swell
Dir  Spd
kts
Gust
kts
hPa Trend Height
m
Period
s
Dir
23/09:30am 13.6 W 15 20 1020.2 - 0.0 - - - - - - -
23/09:00am 13.4 NW 10 13 1020.1 - 0.0 - - - - - - -
23/08:30am 12.7 NW 12 15 1019.8 - 0.0 - - - - - - -
23/08:00am 12.5 NW 12 16 1019.5 - 0.0 - - - - - - -
23/07:30am 12.5 NW 12 16 1019.5 - 0.0 - - - - - - -
23/07:00am 12.3 NW 12 15 1019.3 - 0.0 - - - - - - -
23/06:30am 12.2 NW 9 11 1019.3 - 0.0 - - - - - - -
23/06:00am 11.8 NW 12 15 1019.1 - 0.0 - - - - - - -
23/05:30am 11.7 NW 12 14 1019.2 - 0.0 - - - - - - -
23/05:00am 11.8 NW 13 15 1019.1 - 0.0 - - - - - - -
23/04:30am 11.7 NW 12 14 1019.2 - 0.0 - - - - - - -
23/04:00am 11.5 NW 12 14 1019.2 - 0.0 - - - - - - -
23/03:30am 11.5 NW 12 14 1019.2 - 0.0 - - - - - - -
23/03:00am 11.3 NW 11 13 1019.7 - 0.0 - - - - - - -
23/02:30am 11.3 NW 11 13 1020.0 - 0.0 - - - - - - -
23/02:00am 11.3 NW 11 13 1020.0 - 0.0 - - - - - - -
23/01:30am 11.4 NW 10 13 1020.0 - 0.0 - - - - - - -
23/01:00am 11.2 NW 10 11 1020.1 - 0.0 - - - - - - -
23/12:30am 11.3 NW 12 14 1020.1 - 0.0 - - - - - - -
23/12:00am 11.5 NW 11 14 1020.1 - 0.0 - - - - - - -
 
Date/Time
CST
Temp
°C
Wind Pressure Rain since
9am
mm
Weather Cloud Vis
km
Sea
Height
m
Swell
Dir  Spd
kts
Gust
kts
hPa Trend Height
m
Period
s
Dir
22/11:30pm 11.8 NW 12 14 1020.2 - 0.0 - - - - - - -
22/11:00pm 12.0 NW 12 15 1020.4 - 0.0 - - - - - - -
22/10:30pm 12.5 NW 11 15 1020.6 - 0.0 - - - - - - -
22/10:00pm 12.3 NW 10 12 1020.8 - 0.0 - - - - - - -
22/09:30pm 12.3 NW 10 12 1020.9 - 0.0 - - - - - - -
22/09:00pm 11.8 NW 9 11 1020.7 - 0.0 - - - - - - -
22/08:30pm 12.1 NW 12 13 1020.7 - 0.0 - - - - - - -
22/08:00pm 11.7 NW 11 13 1020.5 - 0.0 - - - - - - -
22/07:30pm 11.9 NW 12 15 1020.4 - 0.0 - - - - - - -
22/07:00pm 11.9 NW 13 16 1020.2 - 0.0 - - - - - - -
22/06:30pm 12.1 WNW 12 15 1020.2 - 0.0 - - - - - - -
22/06:00pm 12.4 NW 10 13 1020.0 - 0.0 - - - - - - -
22/05:30pm 12.5 NW 10 12 1020.0 - 0.0 - - - - - - -
22/05:01pm 12.4 WNW 17 27 1020.0 - 0.0 - - - - - - -
22/05:00pm 12.4 WNW 18 27 1020.0 - 0.0 - - - - - - -
22/04:43pm 13.8 WNW 17 26 1019.6 - 0.0 - - - - - - -
22/04:30pm 14.2 NW 11 15 1019.6 - 0.0 - - - - - - -
22/04:00pm 14.5 NW 17 21 1019.3 - 0.0 - - - - - - -
22/03:30pm 15.3 NW 18 23 1019.1 - 0.0 - - - - - - -
22/03:00pm 15.7 NW 18 24 1019.0 - 0.0 - - - - - - -
22/02:30pm 15.7 NW 19 25 1019.0 - 0.0 - - - - - - -
22/02:00pm 15.9 NW 19 23 1019.1 - 0.0 - - - - - - -
22/01:30pm 15.9 NW 19 25 1019.1 - 0.0 - - - - - - -
22/01:00pm 15.5 NNW 17 24 1019.4 - 0.0 - - - - - - -
22/12:30pm 15.9 NNW 20 26 1019.5 - 0.0 - - - - - - -
22/12:00pm 15.8 NW 15 22 1020.2 - 0.0 - - - - - - -
22/11:30am 14.3 N 18 21 1020.3 - 0.0 - - - - - - -
22/11:00am 14.5 N 18 21 1020.5 - 0.0 - - - - - - -
22/10:30am 14.2 N 18 22 1020.5 - 0.0 - - - - - - -
22/10:00am 14.6 NNW 17 20 1020.6 - 0.0 - - - - - - -
22/09:30am 14.6 NW 11 16 1020.7 - 0.0 - - - - - - -
22/09:00am 13.6 NW 10 14 1020.7 - 0.0 - - - - - - -
22/08:30am 12.1 NW 11 13 1020.5 - 0.0 - - - - - - -
22/08:00am 11.5 NW 9 12 1020.7 - 0.0 - - - - - - -
22/07:30am 11.0 NW 7 9 1020.4 - 0.0 - - - - - - -
22/07:00am 11.0 NW 9 12 1020.0 - 0.0 - - - - - - -
22/06:30am 10.9 NW 9 9 1019.9 - 0.0 - - - - - - -
22/06:00am 11.0 NW 9 11 1019.5 - 0.0 - - - - - - -
22/05:30am 10.8 NW 6 7 1019.3 - 0.0 - - - - - - -
22/05:00am 10.9 NW 7 8 1019.1 - 0.0 - - - - - - -
22/04:30am 10.9 WNW 7 10 1019.2 - 0.0 - - - - - - -
22/04:00am 10.9 WNW 6 8 1019.0 - 0.0 - - - - - - -
22/03:30am 11.6 WSW 7 10 1018.8 - 0.0 - - - - - - -
22/03:00am 11.2 WNW 5 7 1018.6 - 0.0 - - - - - - -
22/02:30am 11.6 SW 8 10 1018.6 - 0.0 - - - - - - -
22/02:00am 11.8 WSW 7 9 1018.6 - 0.0 - - - - - - -
22/01:30am 12.0 SW 11 18 1018.8 - 0.0 - - - - - - -
22/01:00am 12.2 SW 11 13 1018.7 - 0.0 - - - - - - -
22/12:30am 12.0 WSW 10 12 1018.7 - 0.0 - - - - - - -
22/12:00am 12.2 SSW 13 16 1018.6 - 0.0 - - - - - - -
 
Date/Time
CST
Temp
°C
Wind Pressure Rain since
9am
mm
Weather Cloud Vis
km
Sea
Height
m
Swell
Dir  Spd
kts
Gust
kts
hPa Trend Height
m
Period
s
Dir
21/11:30pm 12.0 SW 8 12 1018.5 - 0.0 - - - - - - -
21/11:00pm 11.6 SW 12 17 1018.6 - 0.0 - - - - - - -
21/10:30pm 12.0 WSW 8 10 1018.3 - 0.0 - - - - - - -
21/10:00pm 12.1 WSW 12 15 1018.2 - 0.0 - - - - - - -
21/09:30pm 12.6 SW 11 16 1018.0 - 0.0 - - - - - - -
21/09:00pm 12.4 SW 10 17 1017.5 - 0.0 - - - - - - -
21/08:30pm 12.6 SSW 13 15 1017.2 - 0.0 - - - - - - -
21/08:00pm 12.9 SSW 14 17 1016.9 - 0.0 - - - - - - -
21/07:30pm 12.8 SSW 11 14 1016.5 - 0.0 - - - - - - -
21/07:00pm 12.7 SSW 9 11 1016.0 - 0.0 - - - - - - -
21/06:30pm 12.6 SW 5 8 1015.7 - 0.0 - - - - - - -
21/06:00pm 12.7 SW 7 10 1015.2 - 0.0 - - - - - - -
21/05:30pm 12.5 SSW 9 11 1014.7 - 0.0 - - - - - - -
21/05:00pm 12.5 SSW 11 13 1014.0 - 0.0 - - - - - - -
21/04:30pm 12.7 S 9 14 1013.5 - 0.0 - - - - - - -
21/04:00pm 12.5 S 9 12 1013.1 - 0.0 - - - - - - -
21/03:30pm 12.6 S 11 14 1012.9 - 0.0 - - - - - - -
21/03:00pm 12.5 S 9 12 1012.5 - 0.0 - - - - - - -
21/02:30pm 11.9 S 7 11 1012.1 - 0.0 - - - - - - -
21/02:00pm 11.9 S 8 11 1011.6 - 0.0 - - - - - - -
21/01:30pm 11.5 SSE 6 9 1011.4 - 0.0 - - - - - - -
21/01:00pm 11.3 SSE 8 10 1011.2 - 0.0 - - - - - - -
21/12:30pm 11.4 S 8 10 1010.9 - 0.0 - - - - - - -
21/12:00pm 11.2 S 6 9 1010.8 - 0.0 - - - - - - -
21/11:30am 11.8 SE 5 7 1010.6 - 0.0 - - - - - - -
21/11:00am 12.1 ESE 7 10 1010.2 - 0.0 - - - - - - -
21/10:30am 10.3 SE 10 12 1010.1 - 0.0 - - - - - - -
21/10:00am 10.5 ESE 7 12 1009.6 - 0.0 - - - - - - -
21/09:30am 10.5 ESE 7 11 1009.2 - 0.0 - - - - - - -
21/09:00am 10.3 ENE 7 9 1008.9 - 7.2 - - - - - - -
21/08:30am 10.0 ENE 7 9 1008.7 - 7.2 - - - - - - -
21/08:00am 10.1 ENE 7 10 1008.3 - 7.2 - - - - - - -
21/07:30am 10.0 NNE 10 13 1007.6 - 7.2 - - - - - - -
21/07:00am 9.9 NNE 13 17 1007.0 - 7.2 - - - - - - -
21/06:30am 9.7 N 14 18 1006.6 - 7.2 - - - - - - -
21/06:00am 9.5 N 14 18 1006.5 - 7.2 - - - - - - -
21/05:30am 10.1 N 19 22 1006.2 - 7.2 - - - - - - -
21/05:00am 9.9 N 25 31 1006.2 - 7.2 - - - - - - -
21/04:30am 10.0 N 26 33 1005.8 - 7.2 - - - - - - -
21/04:00am 10.2 N 27 31 1005.8 - 7.2 - - - - - - -
21/03:30am 10.3 N 28 34 1006.1 - 6.6 - - - - - - -
21/03:00am 10.9 N 29 34 1006.4 - 6.6 - - - - - - -
21/02:30am 11.3 N 28 33 1006.7 - 6.6 - - - - - - -
21/02:00am 11.3 N 24 30 1007.2 - 6.6 - - - - - - -
21/01:30am 11.4 N 22 28 1007.8 - 6.6 - - - - - - -
21/01:00am 11.0 N 21 26 1008.1 - 6.6 - - - - - - -
21/12:30am 11.3 N 22 28 1008.3 - 6.6 - - - - - - -
21/12:00am 10.7 NNE 21 34 1008.9 - 6.6 - - - - - - -
 
Date/Time
CST
Temp
°C
Wind Pressure Rain since
9am
mm
Weather Cloud Vis
km
Sea
Height
m
Swell
Dir  Spd
kts
Gust
kts
hPa Trend Height
m
Period
s
Dir
20/11:58pm 10.4 NNE 20 33 1008.9 - 6.6 - - - - - - -
20/11:30pm 10.2 NNE 21 29 1009.5 - 6.6 - - - - - - -
20/11:00pm 10.3 N 19 25 1010.0 - 6.6 - - - - - - -
20/10:30pm 10.0 N 21 24 1010.7 - 6.6 - - - - - - -
20/10:00pm 9.3 N 22 26 1011.5 - 6.6 - - - - - - -
20/09:30pm 9.2 NNE 19 23 1012.1 - 6.4 - - - - - - -
20/09:00pm 9.0 NNE 19 23 1012.5 - 5.8 Rain - - - - - -
20/08:30pm 9.0 NNE 23 28 1012.9 - 5.4 - - - - - - -
20/08:00pm 9.1 NNE 23 27 1013.1 - 5.0 - - - - - - -
20/07:30pm 8.9 NNE 20 26 1013.3 - 4.8 - - - - - - -
20/07:00pm 9.0 NNE 21 25 1013.7 - 4.0 - - - - - - -
20/06:30pm 9.4 N 25 30 1013.6 - 3.0 - - - - - - -
20/06:00pm 9.6 N 29 34 1013.5 - 2.0 Rain - - - - - -
20/05:30pm 10.3 N 23 27 1014.2 - 0.6 - - - - - - -
20/05:08pm 11.5 N 21 31 1014.0 - 0.2 - - - - - - -
20/05:00pm 11.8 NNE 19 22 1014.1 - 0.2 - - - - - - -
20/04:30pm 11.2 N 20 25 1014.3 - 0.2 - - - - - - -
20/04:00pm 11.4 N 22 25 1014.8 - 0.0 - - - - - - -
20/03:30pm 12.3 N 16 19 1015.6 - 0.0 - - - - - - -
20/03:00pm 12.7 N 18 22 1015.3 - 0.0 - - - - - - -
20/02:30pm 12.7 N 17 21 1015.6 - 0.0 - - - - - - -
20/02:00pm 13.0 N 21 25 1016.2 - 0.0 - - - - - - -
20/01:30pm 13.2 N 20 24 1016.9 - 0.0 - - - - - - -
20/01:00pm 13.4 NNE 19 23 1016.8 - 0.0 - - - - - - -
20/12:30pm 13.1 NNE 16 21 1017.9 - 0.0 - - - - - - -
20/12:00pm 13.1 NNE 15 18 1018.9 - 0.0 - - - - - - -
20/11:30am 13.7 NNE 12 16 1019.8 - 0.0 - - - - - - -
20/11:00am 13.0 NNE 11 14 1020.5 - 0.0 - - - - - - -
20/10:30am 12.5 NNE 13 16 1021.2 - 0.0 - - - - - - -
20/10:00am 11.6 NE 14 18 1021.5 - 0.0 - - - - - - -

Other Formats:

Comma delimited format used in spreadsheet applications
http://www.bom.gov.au/fwo/IDS60701/IDS60701.94822.axf

JavaScript Object Notation format (JSON) in row-major order
http://www.bom.gov.au/fwo/IDS60701/IDS60701.94822.json